sensor_id;sensor_type;location;lat;lon;timestamp;P1;durP1;ratioP1;P2;durP2;ratioP2
68718;SDS011;55696;52.138;5.444;2022-09-27T00:01:48;6.15;;;1.15;;
68718;SDS011;55696;52.138;5.444;2022-09-27T00:04:14;8.25;;;3.58;;
68718;SDS011;55696;52.138;5.444;2022-09-27T00:06:41;5.07;;;1.13;;
68718;SDS011;55696;52.138;5.444;2022-09-27T00:09:08;6.03;;;2.10;;
68718;SDS011;55696;52.138;5.444;2022-09-27T00:11:36;5.18;;;1.33;;
68718;SDS011;55696;52.138;5.444;2022-09-27T00:14:05;5.35;;;1.15;;
68718;SDS011;55696;52.138;5.444;2022-09-27T00:16:33;7.13;;;1.80;;
68718;SDS011;55696;52.138;5.444;2022-09-27T00:19:20;3.30;;;1.55;;
68718;SDS011;55696;52.138;5.444;2022-09-27T00:21:48;3.90;;;0.93;;
68718;SDS011;55696;52.138;5.444;2022-09-27T00:24:19;4.35;;;0.82;;
68718;SDS011;55696;52.138;5.444;2022-09-27T00:26:47;4.40;;;1.10;;
68718;SDS011;55696;52.138;5.444;2022-09-27T00:29:16;5.05;;;1.00;;
68718;SDS011;55696;52.138;5.444;2022-09-27T00:31:44;3.75;;;1.10;;
68718;SDS011;55696;52.138;5.444;2022-09-27T00:34:19;2.87;;;1.00;;
68718;SDS011;55696;52.138;5.444;2022-09-27T00:36:47;5.88;;;0.90;;
68718;SDS011;55696;52.138;5.444;2022-09-27T00:39:15;3.95;;;1.25;;
68718;SDS011;55696;52.138;5.444;2022-09-27T00:41:42;3.42;;;0.68;;
68718;SDS011;55696;52.138;5.444;2022-09-27T00:49:45;4.55;;;0.90;;
68718;SDS011;55696;52.138;5.444;2022-09-27T00:52:20;4.63;;;1.20;;
68718;SDS011;55696;52.138;5.444;2022-09-27T00:54:56;5.78;;;0.98;;
68718;SDS011;55696;52.138;5.444;2022-09-27T00:57:28;4.00;;;0.80;;
68718;SDS011;55696;52.138;5.444;2022-09-27T01:00:02;3.87;;;0.87;;
68718;SDS011;55696;52.138;5.444;2022-09-27T01:02:32;2.95;;;0.90;;
68718;SDS011;55696;52.138;5.444;2022-09-27T01:05:02;3.35;;;0.63;;
68718;SDS011;55696;52.138;5.444;2022-09-27T01:07:31;2.20;;;0.68;;
68718;SDS011;55696;52.138;5.444;2022-09-27T01:09:58;5.40;;;0.73;;
68718;SDS011;55696;52.138;5.444;2022-09-27T01:12:30;4.87;;;0.77;;
68718;SDS011;55696;52.138;5.444;2022-09-27T01:25:50;5.23;;;0.70;;
68718;SDS011;55696;52.138;5.444;2022-09-27T01:42:46;4.00;;;0.70;;
68718;SDS011;55696;52.138;5.444;2022-09-27T01:48:15;1.50;;;0.80;;
68718;SDS011;55696;52.138;5.444;2022-09-27T01:50:56;3.63;;;0.80;;
68718;SDS011;55696;52.138;5.444;2022-09-27T01:53:34;6.77;;;0.70;;
68718;SDS011;55696;52.138;5.444;2022-09-27T01:56:32;4.25;;;0.75;;
68718;SDS011;55696;52.138;5.444;2022-09-27T01:59:10;5.07;;;0.90;;
68718;SDS011;55696;52.138;5.444;2022-09-27T02:01:54;2.20;;;0.70;;
68718;SDS011;55696;52.138;5.444;2022-09-27T02:04:32;2.63;;;0.80;;
68718;SDS011;55696;52.138;5.444;2022-09-27T02:07:15;1.03;;;0.60;;
68718;SDS011;55696;52.138;5.444;2022-09-27T02:09:49;4.60;;;1.23;;
68718;SDS011;55696;52.138;5.444;2022-09-27T02:12:29;1.40;;;0.80;;
68718;SDS011;55696;52.138;5.444;2022-09-27T02:15:11;6.30;;;0.90;;
68718;SDS011;55696;52.138;5.444;2022-09-27T02:23:14;4.28;;;0.90;;
68718;SDS011;55696;52.138;5.444;2022-09-27T02:26:11;4.28;;;0.70;;
68718;SDS011;55696;52.138;5.444;2022-09-27T02:28:56;5.70;;;1.33;;
68718;SDS011;55696;52.138;5.444;2022-09-27T02:31:38;3.17;;;0.90;;
68718;SDS011;55696;52.138;5.444;2022-09-27T02:34:06;2.23;;;0.70;;
68718;SDS011;55696;52.138;5.444;2022-09-27T02:36:41;3.85;;;0.88;;
68718;SDS011;55696;52.138;5.444;2022-09-27T02:39:08;3.15;;;0.98;;
68718;SDS011;55696;52.138;5.444;2022-09-27T02:41:37;4.13;;;0.70;;
68718;SDS011;55696;52.138;5.444;2022-09-27T02:44:05;3.75;;;1.00;;
68718;SDS011;55696;52.138;5.444;2022-09-27T02:49:44;3.63;;;1.00;;
68718;SDS011;55696;52.138;5.444;2022-09-27T02:55:58;4.32;;;0.90;;
68718;SDS011;55696;52.138;5.444;2022-09-27T03:05:06;4.93;;;0.80;;
68718;SDS011;55696;52.138;5.444;2022-09-27T03:07:37;7.28;;;1.13;;
68718;SDS011;55696;52.138;5.444;2022-09-27T03:10:05;6.40;;;0.90;;
68718;SDS011;55696;52.138;5.444;2022-09-27T03:12:32;6.35;;;1.10;;
68718;SDS011;55696;52.138;5.444;2022-09-27T03:14:59;5.50;;;0.70;;
68718;SDS011;55696;52.138;5.444;2022-09-27T03:17:45;5.95;;;1.30;;
68718;SDS011;55696;52.138;5.444;2022-09-27T03:20:38;2.95;;;0.88;;
68718;SDS011;55696;52.138;5.444;2022-09-27T03:23:14;5.78;;;1.10;;
68718;SDS011;55696;52.138;5.444;2022-09-27T03:25:41;4.18;;;1.10;;
68718;SDS011;55696;52.138;5.444;2022-09-27T03:28:10;7.87;;;1.53;;
68718;SDS011;55696;52.138;5.444;2022-09-27T03:30:39;8.27;;;0.80;;
68718;SDS011;55696;52.138;5.444;2022-09-27T03:33:08;5.32;;;0.82;;
68718;SDS011;55696;52.138;5.444;2022-09-27T03:35:48;5.47;;;0.90;;
68718;SDS011;55696;52.138;5.444;2022-09-27T03:38:14;6.00;;;1.10;;
68718;SDS011;55696;52.138;5.444;2022-09-27T03:40:41;4.13;;;0.70;;
68718;SDS011;55696;52.138;5.444;2022-09-27T03:43:09;6.35;;;1.30;;
68718;SDS011;55696;52.138;5.444;2022-09-27T03:45:36;5.18;;;0.85;;
68718;SDS011;55696;52.138;5.444;2022-09-27T03:48:07;8.25;;;1.50;;
68718;SDS011;55696;52.138;5.444;2022-09-27T03:50:33;7.47;;;1.58;;
68718;SDS011;55696;52.138;5.444;2022-09-27T03:53:00;3.43;;;1.00;;
68718;SDS011;55696;52.138;5.444;2022-09-27T03:55:27;4.45;;;0.98;;
68718;SDS011;55696;52.138;5.444;2022-09-27T03:57:54;6.60;;;1.00;;
68718;SDS011;55696;52.138;5.444;2022-09-27T04:00:21;8.10;;;1.30;;
68718;SDS011;55696;52.138;5.444;2022-09-27T04:02:48;9.70;;;1.35;;
68718;SDS011;55696;52.138;5.444;2022-09-27T04:05:22;9.27;;;1.20;;
68718;SDS011;55696;52.138;5.444;2022-09-27T04:07:54;5.82;;;1.15;;
68718;SDS011;55696;52.138;5.444;2022-09-27T04:10:21;3.95;;;1.13;;
68718;SDS011;55696;52.138;5.444;2022-09-27T04:12:49;5.20;;;1.25;;
68718;SDS011;55696;52.138;5.444;2022-09-27T04:15:17;6.32;;;1.35;;
68718;SDS011;55696;52.138;5.444;2022-09-27T04:17:47;4.00;;;0.87;;
68718;SDS011;55696;52.138;5.444;2022-09-27T04:20:29;5.03;;;1.13;;
68718;SDS011;55696;52.138;5.444;2022-09-27T04:22:58;4.15;;;0.93;;
68718;SDS011;55696;52.138;5.444;2022-09-27T04:25:25;7.55;;;1.17;;
68718;SDS011;55696;52.138;5.444;2022-09-27T04:27:55;5.60;;;1.20;;
68718;SDS011;55696;52.138;5.444;2022-09-27T04:30:22;7.87;;;1.20;;
68718;SDS011;55696;52.138;5.444;2022-09-27T04:33:08;9.25;;;1.30;;
68718;SDS011;55696;52.138;5.444;2022-09-27T04:35:44;7.88;;;1.48;;
68718;SDS011;55696;52.138;5.444;2022-09-27T04:38:31;9.60;;;1.00;;
68718;SDS011;55696;52.138;5.444;2022-09-27T04:40:58;7.03;;;1.65;;
68718;SDS011;55696;52.138;5.444;2022-09-27T04:43:30;4.53;;;1.07;;
68718;SDS011;55696;52.138;5.444;2022-09-27T04:45:57;6.75;;;1.10;;
68718;SDS011;55696;52.138;5.444;2022-09-27T04:48:24;7.40;;;0.90;;
68718;SDS011;55696;52.138;5.444;2022-09-27T04:50:55;5.20;;;1.15;;
68718;SDS011;55696;52.138;5.444;2022-09-27T04:53:23;4.47;;;2.08;;
68718;SDS011;55696;52.138;5.444;2022-09-27T04:55:51;7.07;;;1.50;;
68718;SDS011;55696;52.138;5.444;2022-09-27T04:58:19;7.30;;;1.35;;
68718;SDS011;55696;52.138;5.444;2022-09-27T05:00:47;4.28;;;0.90;;
68718;SDS011;55696;52.138;5.444;2022-09-27T05:03:38;11.82;;;1.27;;
68718;SDS011;55696;52.138;5.444;2022-09-27T05:06:10;4.40;;;1.25;;
68718;SDS011;55696;52.138;5.444;2022-09-27T05:08:37;4.33;;;0.80;;
68718;SDS011;55696;52.138;5.444;2022-09-27T05:11:30;5.57;;;1.20;;
68718;SDS011;55696;52.138;5.444;2022-09-27T05:14:15;8.20;;;1.45;;
68718;SDS011;55696;52.138;5.444;2022-09-27T05:17:08;5.30;;;1.10;;
68718;SDS011;55696;52.138;5.444;2022-09-27T05:19:48;5.95;;;1.02;;
68718;SDS011;55696;52.138;5.444;2022-09-27T05:22:26;8.40;;;1.20;;
68718;SDS011;55696;52.138;5.444;2022-09-27T05:24:53;9.32;;;1.35;;
68718;SDS011;55696;52.138;5.444;2022-09-27T05:27:20;7.82;;;1.13;;
68718;SDS011;55696;52.138;5.444;2022-09-27T05:29:47;7.93;;;1.10;;
68718;SDS011;55696;52.138;5.444;2022-09-27T05:32:19;6.32;;;1.50;;
68718;SDS011;55696;52.138;5.444;2022-09-27T05:34:52;4.90;;;0.73;;
68718;SDS011;55696;52.138;5.444;2022-09-27T05:37:19;3.47;;;1.00;;
68718;SDS011;55696;52.138;5.444;2022-09-27T05:39:46;7.35;;;1.20;;
68718;SDS011;55696;52.138;5.444;2022-09-27T05:42:14;6.45;;;1.38;;
68718;SDS011;55696;52.138;5.444;2022-09-27T05:44:41;4.38;;;0.90;;
68718;SDS011;55696;52.138;5.444;2022-09-27T05:47:13;11.67;;;1.60;;
68718;SDS011;55696;52.138;5.444;2022-09-27T05:49:40;5.65;;;1.00;;
68718;SDS011;55696;52.138;5.444;2022-09-27T05:52:09;6.53;;;1.20;;
68718;SDS011;55696;52.138;5.444;2022-09-27T05:54:42;8.00;;;1.88;;
68718;SDS011;55696;52.138;5.444;2022-09-27T05:57:09;3.63;;;1.10;;
68718;SDS011;55696;52.138;5.444;2022-09-27T05:59:41;5.43;;;1.20;;
68718;SDS011;55696;52.138;5.444;2022-09-27T06:02:14;3.97;;;1.10;;
68718;SDS011;55696;52.138;5.444;2022-09-27T06:05:04;5.88;;;1.40;;
68718;SDS011;55696;52.138;5.444;2022-09-27T06:07:50;4.45;;;0.90;;
68718;SDS011;55696;52.138;5.444;2022-09-27T06:10:23;3.85;;;1.35;;
68718;SDS011;55696;52.138;5.444;2022-09-27T06:12:50;4.90;;;0.87;;
68718;SDS011;55696;52.138;5.444;2022-09-27T06:15:46;8.45;;;1.40;;
68718;SDS011;55696;52.138;5.444;2022-09-27T06:18:15;4.20;;;1.33;;
68718;SDS011;55696;52.138;5.444;2022-09-27T06:20:45;3.95;;;1.10;;
68718;SDS011;55696;52.138;5.444;2022-09-27T06:23:13;5.50;;;2.08;;
68718;SDS011;55696;52.138;5.444;2022-09-27T06:25:43;6.10;;;0.87;;
68718;SDS011;55696;52.138;5.444;2022-09-27T06:28:17;6.15;;;1.50;;
68718;SDS011;55696;52.138;5.444;2022-09-27T06:30:49;7.13;;;1.02;;
68718;SDS011;55696;52.138;5.444;2022-09-27T06:33:34;5.93;;;1.40;;
68718;SDS011;55696;52.138;5.444;2022-09-27T06:36:04;9.13;;;1.08;;
68718;SDS011;55696;52.138;5.444;2022-09-27T06:38:35;6.67;;;0.93;;
68718;SDS011;55696;52.138;5.444;2022-09-27T06:41:10;4.93;;;1.02;;
68718;SDS011;55696;52.138;5.444;2022-09-27T06:43:49;3.40;;;1.20;;
68718;SDS011;55696;52.138;5.444;2022-09-27T06:46:37;4.80;;;0.98;;
68718;SDS011;55696;52.138;5.444;2022-09-27T06:49:41;5.53;;;1.20;;
68718;SDS011;55696;52.138;5.444;2022-09-27T06:52:08;3.27;;;0.87;;
68718;SDS011;55696;52.138;5.444;2022-09-27T06:54:35;4.43;;;0.80;;
68718;SDS011;55696;52.138;5.444;2022-09-27T06:57:02;3.22;;;1.25;;
68718;SDS011;55696;52.138;5.444;2022-09-27T06:59:29;7.13;;;1.25;;
68718;SDS011;55696;52.138;5.444;2022-09-27T07:02:33;6.35;;;1.02;;
68718;SDS011;55696;52.138;5.444;2022-09-27T07:04:59;6.13;;;0.90;;
68718;SDS011;55696;52.138;5.444;2022-09-27T07:07:56;6.50;;;1.20;;
68718;SDS011;55696;52.138;5.444;2022-09-27T07:10:24;6.68;;;1.23;;
68718;SDS011;55696;52.138;5.444;2022-09-27T07:12:53;6.93;;;1.17;;
68718;SDS011;55696;52.138;5.444;2022-09-27T07:15:22;4.60;;;1.08;;
68718;SDS011;55696;52.138;5.444;2022-09-27T07:17:56;5.27;;;1.00;;
68718;SDS011;55696;52.138;5.444;2022-09-27T07:20:25;5.55;;;1.10;;
68718;SDS011;55696;52.138;5.444;2022-09-27T07:22:52;5.90;;;1.05;;
68718;SDS011;55696;52.138;5.444;2022-09-27T07:25:19;5.38;;;1.35;;
68718;SDS011;55696;52.138;5.444;2022-09-27T07:27:47;3.95;;;0.95;;
68718;SDS011;55696;52.138;5.444;2022-09-27T07:30:15;5.10;;;1.00;;
68718;SDS011;55696;52.138;5.444;2022-09-27T07:32:42;5.30;;;1.00;;
68718;SDS011;55696;52.138;5.444;2022-09-27T07:35:09;5.18;;;1.40;;
68718;SDS011;55696;52.138;5.444;2022-09-27T07:37:37;7.25;;;1.13;;
68718;SDS011;55696;52.138;5.444;2022-09-27T07:40:05;6.97;;;1.52;;
68718;SDS011;55696;52.138;5.444;2022-09-27T07:42:37;3.00;;;0.80;;
68718;SDS011;55696;52.138;5.444;2022-09-27T07:45:06;4.70;;;1.00;;
68718;SDS011;55696;52.138;5.444;2022-09-27T07:48:05;4.18;;;1.25;;
68718;SDS011;55696;52.138;5.444;2022-09-27T07:50:59;5.95;;;1.05;;
68718;SDS011;55696;52.138;5.444;2022-09-27T07:53:44;5.35;;;1.20;;
68718;SDS011;55696;52.138;5.444;2022-09-27T07:56:31;4.37;;;1.10;;
68718;SDS011;55696;52.138;5.444;2022-09-27T07:58:59;4.20;;;1.00;;
68718;SDS011;55696;52.138;5.444;2022-09-27T08:01:25;5.72;;;1.42;;
68718;SDS011;55696;52.138;5.444;2022-09-27T08:03:52;4.70;;;1.00;;
68718;SDS011;55696;52.138;5.444;2022-09-27T08:06:20;7.35;;;1.33;;
68718;SDS011;55696;52.138;5.444;2022-09-27T08:08:47;7.73;;;1.17;;
68718;SDS011;55696;52.138;5.444;2022-09-27T08:11:15;5.50;;;1.17;;
68718;SDS011;55696;52.138;5.444;2022-09-27T08:13:46;6.57;;;1.27;;
68718;SDS011;55696;52.138;5.444;2022-09-27T08:16:15;4.88;;;1.30;;
68718;SDS011;55696;52.138;5.444;2022-09-27T08:19:00;7.05;;;1.40;;
68718;SDS011;55696;52.138;5.444;2022-09-27T08:21:50;7.63;;;1.17;;
68718;SDS011;55696;52.138;5.444;2022-09-27T08:24:27;5.68;;;1.08;;
68718;SDS011;55696;52.138;5.444;2022-09-27T08:27:09;6.85;;;1.40;;
68718;SDS011;55696;52.138;5.444;2022-09-27T08:29:45;5.13;;;1.38;;
68718;SDS011;55696;52.138;5.444;2022-09-27T08:32:13;4.22;;;1.70;;
68718;SDS011;55696;52.138;5.444;2022-09-27T08:34:48;4.90;;;1.47;;
68718;SDS011;55696;52.138;5.444;2022-09-27T08:37:14;5.38;;;1.20;;
68718;SDS011;55696;52.138;5.444;2022-09-27T08:39:41;7.32;;;2.00;;
68718;SDS011;55696;52.138;5.444;2022-09-27T08:47:54;5.30;;;1.30;;
68718;SDS011;55696;52.138;5.444;2022-09-27T08:50:35;6.35;;;1.45;;
68718;SDS011;55696;52.138;5.444;2022-09-27T08:55:50;6.93;;;1.05;;
68718;SDS011;55696;52.138;5.444;2022-09-27T09:00:58;3.93;;;1.20;;
68718;SDS011;55696;52.138;5.444;2022-09-27T09:03:34;5.35;;;1.45;;
68718;SDS011;55696;52.138;5.444;2022-09-27T09:06:24;2.88;;;1.20;;
68718;SDS011;55696;52.138;5.444;2022-09-27T09:09:26;3.67;;;1.30;;
68718;SDS011;55696;52.138;5.444;2022-09-27T09:15:50;6.17;;;1.63;;
68718;SDS011;55696;52.138;5.444;2022-09-27T09:18:34;2.80;;;1.10;;
68718;SDS011;55696;52.138;5.444;2022-09-27T09:24:18;6.55;;;1.13;;
68718;SDS011;55696;52.138;5.444;2022-09-27T09:35:11;6.60;;;1.25;;
68718;SDS011;55696;52.138;5.444;2022-09-27T09:37:56;5.82;;;1.23;;
68718;SDS011;55696;52.138;5.444;2022-09-27T09:43:22;5.43;;;2.03;;
68718;SDS011;55696;52.138;5.444;2022-09-27T09:45:55;4.53;;;1.15;;
68718;SDS011;55696;52.138;5.444;2022-09-27T09:51:05;6.32;;;1.38;;
68718;SDS011;55696;52.138;5.444;2022-09-27T09:53:41;4.97;;;1.00;;
68718;SDS011;55696;52.138;5.444;2022-09-27T09:56:29;3.50;;;1.00;;
68718;SDS011;55696;52.138;5.444;2022-09-27T09:59:14;6.60;;;1.08;;
68718;SDS011;55696;52.138;5.444;2022-09-27T10:01:49;5.15;;;1.75;;
68718;SDS011;55696;52.138;5.444;2022-09-27T10:04:18;3.42;;;1.33;;
68718;SDS011;55696;52.138;5.444;2022-09-27T10:06:49;4.07;;;1.20;;
68718;SDS011;55696;52.138;5.444;2022-09-27T10:09:21;7.93;;;1.10;;
68718;SDS011;55696;52.138;5.444;2022-09-27T10:12:12;2.50;;;1.08;;
68718;SDS011;55696;52.138;5.444;2022-09-27T10:14:43;2.70;;;0.95;;
68718;SDS011;55696;52.138;5.444;2022-09-27T10:17:13;2.58;;;0.98;;
68718;SDS011;55696;52.138;5.444;2022-09-27T10:19:43;4.68;;;1.13;;
68718;SDS011;55696;52.138;5.444;2022-09-27T10:22:18;2.07;;;0.67;;
68718;SDS011;55696;52.138;5.444;2022-09-27T10:24:52;3.75;;;0.70;;
68718;SDS011;55696;52.138;5.444;2022-09-27T10:27:42;3.83;;;1.05;;
68718;SDS011;55696;52.138;5.444;2022-09-27T10:30:38;5.10;;;1.00;;
68718;SDS011;55696;52.138;5.444;2022-09-27T10:33:15;2.63;;;1.10;;
68718;SDS011;55696;52.138;5.444;2022-09-27T10:35:46;5.57;;;1.17;;
68718;SDS011;55696;52.138;5.444;2022-09-27T10:38:28;6.15;;;1.25;;
68718;SDS011;55696;52.138;5.444;2022-09-27T10:41:15;3.08;;;1.00;;
68718;SDS011;55696;52.138;5.444;2022-09-27T10:46:47;6.38;;;1.73;;
68718;SDS011;55696;52.138;5.444;2022-09-27T10:49:33;4.60;;;1.40;;
68718;SDS011;55696;52.138;5.444;2022-09-27T10:52:12;5.30;;;0.90;;
68718;SDS011;55696;52.138;5.444;2022-09-27T10:54:43;2.05;;;1.00;;
68718;SDS011;55696;52.138;5.444;2022-09-27T10:57:20;7.20;;;1.20;;
68718;SDS011;55696;52.138;5.444;2022-09-27T10:59:53;4.60;;;1.20;;
68718;SDS011;55696;52.138;5.444;2022-09-27T11:02:58;2.60;;;1.00;;
68718;SDS011;55696;52.138;5.444;2022-09-27T11:07:50;2.42;;;1.00;;
68718;SDS011;55696;52.138;5.444;2022-09-27T11:10:22;2.47;;;1.02;;
68718;SDS011;55696;52.138;5.444;2022-09-27T11:15:49;3.43;;;0.90;;
68718;SDS011;55696;52.138;5.444;2022-09-27T11:21:41;3.67;;;1.30;;
68718;SDS011;55696;52.138;5.444;2022-09-27T11:27:17;5.07;;;1.10;;
68718;SDS011;55696;52.138;5.444;2022-09-27T11:30:15;3.90;;;1.03;;
68718;SDS011;55696;52.138;5.444;2022-09-27T11:33:04;4.35;;;1.17;;
68718;SDS011;55696;52.138;5.444;2022-09-27T11:36:00;2.88;;;1.25;;
68718;SDS011;55696;52.138;5.444;2022-09-27T11:38:38;2.78;;;1.17;;
68718;SDS011;55696;52.138;5.444;2022-09-27T11:52:21;2.88;;;0.85;;
68718;SDS011;55696;52.138;5.444;2022-09-27T11:57:37;2.40;;;0.70;;
68718;SDS011;55696;52.138;5.444;2022-09-27T12:03:27;2.25;;;0.90;;
68718;SDS011;55696;52.138;5.444;2022-09-27T12:06:16;2.00;;;1.00;;
68718;SDS011;55696;52.138;5.444;2022-09-27T12:09:00;2.97;;;1.05;;
68718;SDS011;55696;52.138;5.444;2022-09-27T12:16:35;4.53;;;1.08;;
68718;SDS011;55696;52.138;5.444;2022-09-27T12:19:04;3.35;;;1.20;;
68718;SDS011;55696;52.138;5.444;2022-09-27T12:21:49;3.25;;;0.95;;
68718;SDS011;55696;52.138;5.444;2022-09-27T12:24:18;1.77;;;0.60;;
68718;SDS011;55696;52.138;5.444;2022-09-27T12:27:15;1.63;;;0.55;;
68718;SDS011;55696;52.138;5.444;2022-09-27T12:29:49;3.95;;;1.00;;
68718;SDS011;55696;52.138;5.444;2022-09-27T12:32:17;3.05;;;1.08;;
68718;SDS011;55696;52.138;5.444;2022-09-27T12:37:37;3.50;;;0.90;;
68718;SDS011;55696;52.138;5.444;2022-09-27T12:40:21;2.38;;;0.90;;
68718;SDS011;55696;52.138;5.444;2022-09-27T12:42:51;3.55;;;0.90;;
68718;SDS011;55696;52.138;5.444;2022-09-27T12:48:48;2.83;;;0.98;;
68718;SDS011;55696;52.138;5.444;2022-09-27T12:51:29;2.40;;;0.80;;
68718;SDS011;55696;52.138;5.444;2022-09-27T12:56:43;1.52;;;0.80;;
68718;SDS011;55696;52.138;5.444;2022-09-27T12:59:45;3.60;;;0.90;;
68718;SDS011;55696;52.138;5.444;2022-09-27T13:02:21;7.05;;;1.20;;
68718;SDS011;55696;52.138;5.444;2022-09-27T13:12:57;3.60;;;1.05;;
68718;SDS011;55696;52.138;5.444;2022-09-27T13:15:30;2.00;;;0.93;;
68718;SDS011;55696;52.138;5.444;2022-09-27T13:18:00;1.90;;;0.80;;
68718;SDS011;55696;52.138;5.444;2022-09-27T13:20:39;4.38;;;1.00;;
68718;SDS011;55696;52.138;5.444;2022-09-27T13:26:03;2.67;;;1.00;;
68718;SDS011;55696;52.138;5.444;2022-09-27T13:29:19;4.88;;;1.10;;
68718;SDS011;55696;52.138;5.444;2022-09-27T13:34:41;3.95;;;1.00;;
68718;SDS011;55696;52.138;5.444;2022-09-27T13:40:38;3.70;;;0.88;;
68718;SDS011;55696;52.138;5.444;2022-09-27T13:46:22;2.83;;;0.70;;
68718;SDS011;55696;52.138;5.444;2022-09-27T13:48:53;2.83;;;0.82;;
68718;SDS011;55696;52.138;5.444;2022-09-27T13:51:35;2.35;;;1.15;;
68718;SDS011;55696;52.138;5.444;2022-09-27T14:00:11;4.37;;;1.03;;
68718;SDS011;55696;52.138;5.444;2022-09-27T14:03:00;3.40;;;0.90;;
68718;SDS011;55696;52.138;5.444;2022-09-27T14:05:40;2.28;;;1.15;;
68718;SDS011;55696;52.138;5.444;2022-09-27T14:08:17;4.53;;;1.90;;
68718;SDS011;55696;52.138;5.444;2022-09-27T14:11:03;4.18;;;1.10;;
68718;SDS011;55696;52.138;5.444;2022-09-27T14:13:36;5.77;;;1.10;;
68718;SDS011;55696;52.138;5.444;2022-09-27T14:16:12;5.07;;;1.20;;
68718;SDS011;55696;52.138;5.444;2022-09-27T14:18:42;4.72;;;1.23;;
68718;SDS011;55696;52.138;5.444;2022-09-27T14:21:41;3.30;;;1.08;;
68718;SDS011;55696;52.138;5.444;2022-09-27T14:24:59;3.00;;;1.00;;
68718;SDS011;55696;52.138;5.444;2022-09-27T14:27:19;4.57;;;1.10;;
68718;SDS011;55696;52.138;5.444;2022-09-27T14:32:27;3.17;;;1.10;;
68718;SDS011;55696;52.138;5.444;2022-09-27T14:38:14;7.13;;;1.27;;
68718;SDS011;55696;52.138;5.444;2022-09-27T14:41:08;4.57;;;1.00;;
68718;SDS011;55696;52.138;5.444;2022-09-27T14:43:36;3.33;;;1.00;;
68718;SDS011;55696;52.138;5.444;2022-09-27T14:46:22;4.90;;;1.30;;
68718;SDS011;55696;52.138;5.444;2022-09-27T14:48:54;3.65;;;1.08;;
68718;SDS011;55696;52.138;5.444;2022-09-27T14:51:28;2.55;;;1.13;;
68718;SDS011;55696;52.138;5.444;2022-09-27T14:53:56;2.57;;;1.20;;
68718;SDS011;55696;52.138;5.444;2022-09-27T14:56:28;2.88;;;1.00;;
68718;SDS011;55696;52.138;5.444;2022-09-27T14:59:06;3.13;;;1.52;;
68718;SDS011;55696;52.138;5.444;2022-09-27T15:01:50;3.60;;;1.10;;
68718;SDS011;55696;52.138;5.444;2022-09-27T15:04:18;2.35;;;1.20;;
68718;SDS011;55696;52.138;5.444;2022-09-27T15:06:47;2.87;;;1.00;;
68718;SDS011;55696;52.138;5.444;2022-09-27T15:09:15;4.15;;;1.27;;
68718;SDS011;55696;52.138;5.444;2022-09-27T15:11:43;5.72;;;1.30;;
68718;SDS011;55696;52.138;5.444;2022-09-27T15:14:15;3.88;;;1.30;;
68718;SDS011;55696;52.138;5.444;2022-09-27T15:16:45;3.80;;;1.10;;
68718;SDS011;55696;52.138;5.444;2022-09-27T15:19:15;3.87;;;1.00;;
68718;SDS011;55696;52.138;5.444;2022-09-27T15:21:47;2.15;;;0.98;;
68718;SDS011;55696;52.138;5.444;2022-09-27T15:27:21;4.47;;;1.20;;
68718;SDS011;55696;52.138;5.444;2022-09-27T15:29:52;3.35;;;1.05;;
68718;SDS011;55696;52.138;5.444;2022-09-27T15:32:21;6.00;;;1.50;;
68718;SDS011;55696;52.138;5.444;2022-09-27T15:34:49;4.38;;;1.40;;
68718;SDS011;55696;52.138;5.444;2022-09-27T15:37:27;6.82;;;2.13;;
68718;SDS011;55696;52.138;5.444;2022-09-27T15:40:07;4.38;;;1.30;;
68718;SDS011;55696;52.138;5.444;2022-09-27T15:43:27;4.88;;;1.65;;
68718;SDS011;55696;52.138;5.444;2022-09-27T15:46:23;4.33;;;1.47;;
68718;SDS011;55696;52.138;5.444;2022-09-27T15:49:18;3.30;;;1.73;;
68718;SDS011;55696;52.138;5.444;2022-09-27T15:51:51;5.10;;;1.75;;
68718;SDS011;55696;52.138;5.444;2022-09-27T15:54:20;5.18;;;2.00;;
68718;SDS011;55696;52.138;5.444;2022-09-27T15:56:48;6.63;;;1.50;;
68718;SDS011;55696;52.138;5.444;2022-09-27T15:59:27;4.50;;;1.77;;
68718;SDS011;55696;52.138;5.444;2022-09-27T16:01:57;7.18;;;1.70;;
68718;SDS011;55696;52.138;5.444;2022-09-27T16:04:30;6.20;;;1.70;;
68718;SDS011;55696;52.138;5.444;2022-09-27T16:06:57;4.78;;;1.38;;
68718;SDS011;55696;52.138;5.444;2022-09-27T16:09:26;5.43;;;1.60;;
68718;SDS011;55696;52.138;5.444;2022-09-27T16:11:53;5.77;;;2.13;;
68718;SDS011;55696;52.138;5.444;2022-09-27T16:14:19;3.75;;;1.52;;
68718;SDS011;55696;52.138;5.444;2022-09-27T16:16:48;6.80;;;1.77;;
68718;SDS011;55696;52.138;5.444;2022-09-27T16:19:16;2.45;;;1.30;;
68718;SDS011;55696;52.138;5.444;2022-09-27T16:21:43;3.88;;;1.83;;
68718;SDS011;55696;52.138;5.444;2022-09-27T16:24:10;3.97;;;1.87;;
68718;SDS011;55696;52.138;5.444;2022-09-27T16:26:37;7.05;;;1.60;;
68718;SDS011;55696;52.138;5.444;2022-09-27T16:29:08;2.72;;;1.38;;
68718;SDS011;55696;52.138;5.444;2022-09-27T16:31:39;4.40;;;1.88;;
68718;SDS011;55696;52.138;5.444;2022-09-27T16:34:07;4.10;;;1.70;;
68718;SDS011;55696;52.138;5.444;2022-09-27T16:36:35;5.30;;;2.70;;
68718;SDS011;55696;52.138;5.444;2022-09-27T16:39:02;9.35;;;3.17;;
68718;SDS011;55696;52.138;5.444;2022-09-27T16:41:31;6.32;;;2.25;;
68718;SDS011;55696;52.138;5.444;2022-09-27T16:43:58;6.65;;;1.70;;
68718;SDS011;55696;52.138;5.444;2022-09-27T16:46:30;3.67;;;1.60;;
68718;SDS011;55696;52.138;5.444;2022-09-27T16:48:58;2.90;;;1.30;;
68718;SDS011;55696;52.138;5.444;2022-09-27T16:51:24;4.55;;;1.60;;
68718;SDS011;55696;52.138;5.444;2022-09-27T16:54:10;6.82;;;1.67;;
68718;SDS011;55696;52.138;5.444;2022-09-27T16:56:41;5.10;;;1.60;;
68718;SDS011;55696;52.138;5.444;2022-09-27T16:59:08;4.15;;;1.70;;
68718;SDS011;55696;52.138;5.444;2022-09-27T17:01:34;9.63;;;2.20;;
68718;SDS011;55696;52.138;5.444;2022-09-27T17:04:01;4.50;;;1.95;;
68718;SDS011;55696;52.138;5.444;2022-09-27T17:06:28;10.05;;;2.65;;
68718;SDS011;55696;52.138;5.444;2022-09-27T17:08:56;8.27;;;2.28;;
68718;SDS011;55696;52.138;5.444;2022-09-27T17:11:28;9.27;;;2.90;;
68718;SDS011;55696;52.138;5.444;2022-09-27T17:13:55;7.50;;;2.57;;
68718;SDS011;55696;52.138;5.444;2022-09-27T17:16:22;10.35;;;2.72;;
68718;SDS011;55696;52.138;5.444;2022-09-27T17:18:50;5.80;;;2.55;;
68718;SDS011;55696;52.138;5.444;2022-09-27T17:21:17;4.75;;;2.60;;
68718;SDS011;55696;52.138;5.444;2022-09-27T17:23:43;4.50;;;1.65;;
68718;SDS011;55696;52.138;5.444;2022-09-27T17:26:17;3.77;;;1.53;;
68718;SDS011;55696;52.138;5.444;2022-09-27T17:28:46;11.57;;;2.13;;
68718;SDS011;55696;52.138;5.444;2022-09-27T17:31:15;6.90;;;1.80;;
68718;SDS011;55696;52.138;5.444;2022-09-27T17:33:44;7.97;;;2.50;;
68718;SDS011;55696;52.138;5.444;2022-09-27T17:36:13;9.45;;;2.15;;
68718;SDS011;55696;52.138;5.444;2022-09-27T17:38:43;7.70;;;2.40;;
68718;SDS011;55696;52.138;5.444;2022-09-27T17:41:12;6.88;;;1.90;;
68718;SDS011;55696;52.138;5.444;2022-09-27T17:43:40;3.67;;;1.63;;
68718;SDS011;55696;52.138;5.444;2022-09-27T17:46:18;4.72;;;1.52;;
68718;SDS011;55696;52.138;5.444;2022-09-27T17:48:49;7.60;;;2.30;;
68718;SDS011;55696;52.138;5.444;2022-09-27T17:51:36;4.67;;;1.77;;
68718;SDS011;55696;52.138;5.444;2022-09-27T17:54:04;7.88;;;2.30;;
68718;SDS011;55696;52.138;5.444;2022-09-27T17:56:36;5.10;;;2.15;;
68718;SDS011;55696;52.138;5.444;2022-09-27T17:59:04;7.43;;;2.60;;
68718;SDS011;55696;52.138;5.444;2022-09-27T18:01:32;6.20;;;2.70;;
68718;SDS011;55696;52.138;5.444;2022-09-27T18:03:59;5.00;;;2.50;;
68718;SDS011;55696;52.138;5.444;2022-09-27T18:06:29;6.85;;;2.50;;
68718;SDS011;55696;52.138;5.444;2022-09-27T18:08:56;4.28;;;1.92;;
68718;SDS011;55696;52.138;5.444;2022-09-27T18:11:24;8.15;;;2.35;;
68718;SDS011;55696;52.138;5.444;2022-09-27T18:13:55;7.00;;;2.85;;
68718;SDS011;55696;52.138;5.444;2022-09-27T18:16:27;6.23;;;2.83;;